Atlantic Explorer — WDC9417 — position and weather

sailwx.info

Track history (hours):
 
Tides and Currents Weather Stations Pressure Air Temp Water Temp Dewpoint Dewpoint Depression Visibility Wind Speed Wind Dir Waves Ship Positions

Oceanographic research ship Atlantic Explorer (USA)

Owner: Bermuda Biological Station for Research, Inc., Jamaica, NY. More information available from US FCC via Universal Licensing System and Coast Guard Vessel Documentation Center.

Last reported at 2018-Dec-03 12:16 UTC. Time now 2019-May-20 02:57 UTC.
Position N 27°25' W 080°09'.
Warning: this ship's position is months out of date.

Length 51 m; draft 3.6 m.

Type: Dredging. MMSI: 303591000.

Date/timePositionNaut miles runAvg speedWind from/ knotsBaromVisibWave heightAir tempDewpointWater temp
2018-Dec-03 12:16N 27°25' W 080°09'2 6.4
2018-Dec-03 11:59N 27°24' W 080°07'3 6.6
2018-Dec-03 11:28N 27°21' W 080°04'18 6.2
2018-Dec-03 08:35N 27°04' W 079°60'0 5.3
2018-Dec-03 08:30N 27°03' W 079°60'3 6.2
2018-Dec-03 08:01N 27°00' W 079°59'3 5.3
2018-Dec-03 07:30N 27°01' W 079°57'1 2.1
2018-Dec-03 07:00N 27°00' W 079°56'3 6.1
2018-Dec-03 06:30N 27°01' W 079°53'1 1.9
2018-Dec-03 06:00N 27°00' W 079°52'3 4.6
2018-Dec-03 05:24N 27°01' W 079°49'40 2.5
2018-Dec-02 13:35N 26°21' W 079°49'113.0
2018-Dec-02 13:29N 26°20' W 079°50'613.1
2018-Dec-02 13:00N 26°15' W 079°54'612.9
2018-Dec-02 12:30N 26°10' W 079°59'612.3
2018-Dec-02 12:00N 26°05' W 080°03'2 4.7
2018-Dec-02 11:30N 26°03' W 080°04'1 2.2
2018-Dec-02 11:00N 26°03' W 080°03'3 5.4
2018-Dec-02 10:30N 26°04' W 079°60'1 1.3
2018-Dec-02 10:00N 26°03' W 079°60'3 6.0
2018-Dec-02 09:30N 26°04' W 079°57'1 1.7
2018-Dec-02 09:00N 26°03' W 079°56'1 2.7
2018-Dec-02 08:30N 26°03' W 079°54'3 6.7
2018-Dec-02 08:00N 26°04' W 079°51'1 1.9
2018-Dec-02 07:30N 26°03' W 079°51'2 5.0
2018-Dec-02 07:00N 26°04' W 079°48'3 5.3
2018-Dec-02 06:30N 26°04' W 079°45'1 1.7
2018-Dec-02 06:00N 26°04' W 079°46'1 1.6
2018-Dec-02 05:30N 26°03' W 079°45'3 6.3
2018-Dec-02 05:00N 26°04' W 079°42'2 3.4
2018-Dec-02 04:30N 26°04' W 079°40'1 1.3
2018-Dec-02 04:00N 26°03' W 079°40'1 2.9
2018-Dec-02 03:30N 26°03' W 079°38'3 6.2
2018-Dec-02 03:00N 26°03' W 079°35'  
Track history (hours):
 
Tides and Currents Weather Stations Pressure Air Temp Water Temp Dewpoint Dewpoint Depression Visibility Wind Speed Wind Dir Waves Ship Positions

Oceanographic research ship Atlantic Explorer (USA)

Owner: Bermuda Biological Station for Research, Inc., Jamaica, NY. More information available from US FCC via Universal Licensing System and Coast Guard Vessel Documentation Center.

Last reported at 2018-Dec-03 12:16 UTC. Time now 2019-May-20 02:57 UTC.
Position N 27°25' W 080°09'.
Warning: this ship's position is months out of date.

Length 51 m; draft 3.6 m.

Type: Dredging. MMSI: 303591000.

Date/timePositionNaut miles runAvg speedWind from/ knotsBaromVisibWave heightAir tempDewpointWater temp
2018-Dec-03 12:16N 27°25' W 080°09'2 6.4
2018-Dec-03 11:59N 27°24' W 080°07'3 6.6
2018-Dec-03 11:28N 27°21' W 080°04'18 6.2
2018-Dec-03 08:35N 27°04' W 079°60'0 5.3
2018-Dec-03 08:30N 27°03' W 079°60'3 6.2
2018-Dec-03 08:01N 27°00' W 079°59'3 5.3
2018-Dec-03 07:30N 27°01' W 079°57'1 2.1
2018-Dec-03 07:00N 27°00' W 079°56'3 6.1
2018-Dec-03 06:30N 27°01' W 079°53'1 1.9
2018-Dec-03 06:00N 27°00' W 079°52'3 4.6
2018-Dec-03 05:24N 27°01' W 079°49'40 2.5
2018-Dec-02 13:35N 26°21' W 079°49'113.0
2018-Dec-02 13:29N 26°20' W 079°50'613.1
2018-Dec-02 13:00N 26°15' W 079°54'612.9
2018-Dec-02 12:30N 26°10' W 079°59'612.3
2018-Dec-02 12:00N 26°05' W 080°03'2 4.7
2018-Dec-02 11:30N 26°03' W 080°04'1 2.2
2018-Dec-02 11:00N 26°03' W 080°03'3 5.4
2018-Dec-02 10:30N 26°04' W 079°60'1 1.3
2018-Dec-02 10:00N 26°03' W 079°60'3 6.0
2018-Dec-02 09:30N 26°04' W 079°57'1 1.7
2018-Dec-02 09:00N 26°03' W 079°56'1 2.7
2018-Dec-02 08:30N 26°03' W 079°54'3 6.7
2018-Dec-02 08:00N 26°04' W 079°51'1 1.9
2018-Dec-02 07:30N 26°03' W 079°51'2 5.0
2018-Dec-02 07:00N 26°04' W 079°48'3 5.3
2018-Dec-02 06:30N 26°04' W 079°45'1 1.7
2018-Dec-02 06:00N 26°04' W 079°46'1 1.6
2018-Dec-02 05:30N 26°03' W 079°45'3 6.3
2018-Dec-02 05:00N 26°04' W 079°42'2 3.4
2018-Dec-02 04:30N 26°04' W 079°40'1 1.3
2018-Dec-02 04:00N 26°03' W 079°40'1 2.9
2018-Dec-02 03:30N 26°03' W 079°38'3 6.2
2018-Dec-02 03:00N 26°03' W 079°35'  

Dump ship's entire track history